Airport View

Enter AWOS ICAO identifier for current METAR.

ex. KFNL

KCKP 300335Z AUTO 19003KT 10SM SCT080 OVC110 00/M02 A3015 RMK AO2 T00031016

30 Oct 2020 03:39

Frequency: 119.225

Phone: 712-225-1088

Other Area AWOS: KSLB - KORC - KLRJ - KSPW

TAF KSUX 292320Z 3000/3024 12005KT P6SM SCT080 FM300800 VRB04KT P6SM SKC